Time;durP1;ratioP1;P1;durP2;ratioP2;P2;SDS_P1;SDS_P2;PMS_P1;PMS_P2;Temp;Humidity;BMP_temperature;BMP_pressure;BME280_temperature;BME280_humidity;BME280_pressure;Samples;Min_cycle;Max_cycle;Signal;HPM_P1;HPM_P2
2024/01/14 00:00:30;;;;;;;33.90;15.50;;;;;;;-148.68;100.00;62903.81;4939668;29;20027;-88
2024/01/14 00:03:54;;;;;;;38.05;15.77;;;;;;;-148.68;100.00;62903.81;4924799;29;20024;-88
2024/01/14 00:07:18;;;;;;;43.40;19.00;;;;;;;-148.68;100.00;62903.81;4939551;29;20027;-88
2024/01/14 00:10:42;;;;;;;39.38;17.75;;;;;;;-148.68;100.00;62903.81;4939402;29;20083;-87
2024/01/14 00:14:06;;;;;;;38.45;16.85;;;;;;;-148.68;100.00;62903.81;4939618;29;20027;-87
2024/01/14 00:17:30;;;;;;;43.53;17.30;;;;;;;-148.68;100.00;62903.81;4939525;29;20035;-88
2024/01/14 00:20:54;;;;;;;37.13;16.05;;;;;;;-148.68;100.00;62903.81;4939316;29;20110;-88
2024/01/14 00:24:18;;;;;;;32.88;14.52;;;;;;;-148.68;100.00;62903.81;4939179;29;20040;-87
2024/01/14 00:27:42;;;;;;;36.17;14.90;;;;;;;-148.68;100.00;62903.81;4939066;29;20028;-87
2024/01/14 00:31:06;;;;;;;34.78;16.05;;;;;;;-148.68;100.00;62903.81;4939350;29;20431;-88
2024/01/14 00:34:30;;;;;;;32.63;15.20;;;;;;;-148.68;100.00;62903.81;4939221;29;20028;-88
2024/01/14 00:37:54;;;;;;;33.90;14.73;;;;;;;-148.68;100.00;62903.81;4939019;29;20032;-87
2024/01/14 00:41:20;;;;;;;32.78;15.02;;;;;;;-148.68;100.00;62903.81;4938862;29;20319;-88
2024/01/14 00:44:44;;;;;;;36.00;15.93;;;;;;;-148.68;100.00;62903.81;4939237;29;20318;-88
2024/01/14 00:48:07;;;;;;;33.03;14.63;;;;;;;-148.68;100.00;62903.81;4922849;29;20353;-87
2024/01/14 00:51:32;;;;;;;37.83;14.65;;;;;;;-148.68;100.00;62903.81;4938075;29;20497;-87
2024/01/14 00:54:56;;;;;;;;;;;;;;;-148.68;100.00;62903.81;4940120;29;20059;-88
2024/01/14 00:58:20;;;;;;;32.20;13.80;;;;;;;-148.68;100.00;62903.81;4954846;29;19914;-88
2024/01/14 01:01:44;;;;;;;32.90;15.25;;;;;;;-148.68;100.00;62903.81;4923047;29;20023;-88
2024/01/14 01:05:08;;;;;;;34.30;14.65;;;;;;;-148.68;100.00;62903.81;4938833;29;20024;-88
2024/01/14 01:08:32;;;;;;;34.50;15.98;;;;;;;-148.68;100.00;62903.81;4938504;29;20026;-87
2024/01/14 01:11:56;;;;;;;34.58;15.40;;;;;;;-148.68;100.00;62903.81;4938392;29;20031;-88
2024/01/14 01:15:20;;;;;;;34.40;15.02;;;;;;;-148.68;100.00;62903.81;4938413;29;20027;-87
2024/01/14 01:18:44;;;;;;;33.25;15.07;;;;;;;-148.68;100.00;62903.81;4938644;29;20118;-88
2024/01/14 01:22:08;;;;;;;32.08;13.77;;;;;;;-148.68;100.00;62903.81;4938376;29;20023;-88
2024/01/14 01:25:33;;;;;;;;;;;;;;;-148.68;100.00;62903.81;4939083;29;20119;-88
2024/01/14 01:28:57;;;;;;;32.22;13.90;;;;;;;-148.68;100.00;62903.81;4954230;29;19918;-88
2024/01/14 01:32:21;;;;;;;30.42;13.02;;;;;;;-148.68;100.00;62903.81;4930306;29;20026;-88
2024/01/14 01:35:45;;;;;;;31.77;14.02;;;;;;;-148.68;100.00;62903.81;4930450;29;20036;-88
2024/01/14 01:39:09;;;;;;;31.77;14.68;;;;;;;-148.68;100.00;62903.81;4938226;29;20034;-88
2024/01/14 01:42:34;;;;;;;34.42;14.23;;;;;;;-148.68;100.00;62903.81;4938483;29;20042;-88
2024/01/14 01:45:58;;;;;;;34.47;14.25;;;;;;;-148.68;100.00;62903.81;4938323;29;20337;-89
2024/01/14 01:49:23;;;;;;;36.88;13.65;;;;;;;-148.68;100.00;62903.81;4937687;29;20043;-88
2024/01/14 01:52:47;;;;;;;30.38;13.45;;;;;;;-148.68;100.00;62903.81;4916189;29;20505;-88
2024/01/14 01:56:11;;;;;;;31.40;14.02;;;;;;;-148.68;100.00;62903.81;4900425;29;20048;-88
2024/01/14 01:59:37;;;;;;;31.85;14.50;;;;;;;-148.68;100.00;62903.81;4900404;29;20035;-88
2024/01/14 02:03:02;;;;;;;33.60;14.43;;;;;;;-148.68;100.00;62903.81;4917006;29;20124;-88
2024/01/14 02:06:45;;;;;;;35.90;14.55;;;;;;;-148.68;100.00;62903.81;4904392;29;20028;-88
2024/01/14 02:10:09;;;;;;;31.77;13.80;;;;;;;-148.68;100.00;62903.81;4921602;29;20033;-88
2024/01/14 02:13:33;;;;;;;31.02;12.95;;;;;;;-148.68;100.00;62903.81;4922917;29;20032;-88
2024/01/14 02:16:57;;;;;;;34.28;12.98;;;;;;;-148.68;100.00;62903.81;4923061;29;20036;-87
2024/01/14 02:20:21;;;;;;;30.40;12.25;;;;;;;-148.68;100.00;62903.81;4907222;29;20028;-88
2024/01/14 02:23:49;;;;;;;32.70;14.68;;;;;;;-148.68;100.00;62903.81;4914269;29;20458;-88
2024/01/14 02:27:24;;;;;;;33.45;13.88;;;;;;;-148.68;100.00;62903.81;4922425;29;20020;-87
2024/01/14 02:30:49;;;;;;;33.63;13.60;;;;;;;-148.68;100.00;62903.81;4922388;29;20025;-88
2024/01/14 02:34:14;;;;;;;30.60;14.48;;;;;;;-148.68;100.00;62903.81;4924138;29;20031;-88
2024/01/14 02:37:43;;;;;;;39.22;14.55;;;;;;;-148.68;100.00;62903.81;4925371;29;20122;-88
2024/01/14 02:41:07;;;;;;;40.17;14.23;;;;;;;-148.68;100.00;62903.81;4930773;29;20031;-88
2024/01/14 02:44:31;;;;;;;30.25;14.15;;;;;;;-148.68;100.00;62903.81;4937641;29;20038;-88
2024/01/14 02:47:55;;;;;;;39.17;15.40;;;;;;;-148.68;100.00;62903.81;4914138;29;20019;-88
2024/01/14 02:51:19;;;;;;;33.92;14.45;;;;;;;-148.68;100.00;62903.81;4918817;29;20087;-88
2024/01/14 02:54:44;;;;;;;30.80;13.90;;;;;;;-148.68;100.00;62903.81;4929476;29;20032;-88
2024/01/14 02:58:08;;;;;;;31.65;14.77;;;;;;;-148.68;100.00;62903.81;4931771;29;20466;-88
2024/01/14 03:01:32;;;;;;;31.15;13.63;;;;;;;-148.68;100.00;62903.81;4942653;29;20046;-88
2024/01/14 03:04:56;;;;;;;32.28;14.02;;;;;;;-148.68;100.00;62903.81;4935395;29;20126;-88
2024/01/14 03:08:20;;;;;;;29.95;13.52;;;;;;;-148.68;100.00;62903.81;4924739;29;20030;-88
2024/01/14 03:11:44;;;;;;;39.80;16.35;;;;;;;-148.68;100.00;62903.81;4887229;29;20047;-88
2024/01/14 03:15:08;;;;;;;32.90;14.43;;;;;;;-148.68;100.00;62903.81;4901716;29;20115;-88
2024/01/14 03:18:32;;;;;;;35.63;15.38;;;;;;;-148.68;100.00;62903.81;4910916;29;20028;-88
2024/01/14 03:21:56;;;;;;;33.05;14.68;;;;;;;-148.68;100.00;62903.81;4921427;29;20038;-88
2024/01/14 03:25:20;;;;;;;40.78;17.17;;;;;;;-148.68;100.00;62903.81;4921617;29;20024;-88
2024/01/14 03:28:44;;;;;;;37.08;15.73;;;;;;;-148.68;100.00;62903.81;4937072;29;20035;-88
2024/01/14 03:32:12;;;;;;;38.38;16.23;;;;;;;-148.68;100.00;62903.81;4925028;29;20031;-88
2024/01/14 03:35:37;;;;;;;40.28;16.50;;;;;;;-148.68;100.00;62903.81;4932850;29;20123;-88
2024/01/14 03:39:03;;;;;;;34.75;16.08;;;;;;;-148.68;100.00;62903.81;4940800;29;20043;-88
2024/01/14 03:42:27;;;;;;;34.10;16.02;;;;;;;-148.68;100.00;62903.81;4924706;29;20079;-87
2024/01/14 03:45:51;;;;;;;39.88;16.73;;;;;;;-148.68;100.00;62903.81;4924198;29;20224;-88
2024/01/14 03:49:15;;;;;;;38.08;16.05;;;;;;;-148.68;100.00;62903.81;4924096;29;20027;-88
2024/01/14 03:52:40;;;;;;;39.13;15.80;;;;;;;-148.68;100.00;62903.81;4939926;29;20079;-88
2024/01/14 03:56:04;;;;;;;39.83;14.93;;;;;;;-148.68;100.00;62903.81;4939518;29;20040;-88
2024/01/14 03:59:28;;;;;;;34.75;15.07;;;;;;;-148.68;100.00;62903.81;4939806;29;20130;-88
2024/01/14 04:02:52;;;;;;;40.58;16.10;;;;;;;-148.68;100.00;62903.81;4939357;29;20031;-88
2024/01/14 04:06:20;;;;;;;42.97;17.90;;;;;;;-148.68;100.00;62903.81;4923641;29;20046;-88
2024/01/14 04:09:44;;;;;;;46.13;17.08;;;;;;;-148.68;100.00;62903.81;4939584;29;20393;-87
2024/01/14 04:13:08;;;;;;;41.58;17.48;;;;;;;-148.68;100.00;62903.81;4932482;29;20471;-88
2024/01/14 04:16:42;;;;;;;37.20;16.67;;;;;;;-148.68;100.00;62903.81;4901162;29;20458;-89
2024/01/14 04:20:07;;;;;;;35.97;16.15;;;;;;;-148.68;100.00;62903.81;4898636;29;20032;-88
2024/01/14 04:23:31;;;;;;;46.53;17.67;;;;;;;-148.68;100.00;62903.81;4920186;29;20442;-88
2024/01/14 04:26:55;;;;;;;35.45;16.60;;;;;;;-148.68;100.00;62903.81;4920606;29;20032;-88
2024/01/14 04:30:19;;;;;;;36.25;16.25;;;;;;;-148.68;100.00;62903.81;4928064;29;20030;-88
2024/01/14 04:33:44;;;;;;;38.65;16.42;;;;;;;-148.68;100.00;62903.81;4924933;29;20042;-87
2024/01/14 04:37:12;;;;;;;;;;;;;;;-148.68;100.00;62903.81;4917335;29;20036;-87
2024/01/14 04:40:36;;;;;;;46.20;18.05;;;;;;;-148.68;100.00;62903.81;4955112;29;20380;-87
2024/01/14 04:44:00;;;;;;;43.63;18.73;;;;;;;-148.68;100.00;62903.81;4939392;29;20122;-87
2024/01/14 04:47:24;;;;;;;40.40;17.02;;;;;;;-148.68;100.00;62903.81;4935544;29;20449;-87
2024/01/14 04:50:47;;;;;;;36.75;16.38;;;;;;;-148.68;100.00;62903.81;4904071;29;20031;-87
2024/01/14 04:54:11;;;;;;;45.35;17.35;;;;;;;-148.68;100.00;62903.81;4904399;29;20028;-87
2024/01/14 04:57:36;;;;;;;42.45;16.38;;;;;;;-148.68;100.00;62903.81;4901306;29;20040;-87
2024/01/14 05:01:00;;;;;;;42.63;18.02;;;;;;;-148.68;100.00;62903.81;4900805;29;20029;-88
2024/01/14 05:04:24;;;;;;;36.38;15.93;;;;;;;-148.68;100.00;62903.81;4913435;29;20039;-87
2024/01/14 05:07:48;;;;;;;43.83;17.77;;;;;;;-148.68;100.00;62903.81;4922851;29;20027;-87
2024/01/14 05:11:12;;;;;;;46.35;18.38;;;;;;;-148.68;100.00;62903.81;4932447;29;20035;-88
2024/01/14 05:14:37;;;;;;;37.95;16.25;;;;;;;-148.68;100.00;62903.81;4919369;29;20028;-87
2024/01/14 05:18:01;;;;;;;38.80;16.90;;;;;;;-148.68;100.00;62903.81;4919552;29;20036;-87
2024/01/14 05:21:26;;;;;;;38.83;16.80;;;;;;;-148.68;100.00;62903.81;4901293;29;20040;-92
2024/01/14 05:24:50;;;;;;;35.05;15.10;;;;;;;-148.68;100.00;62903.81;4901098;29;20036;-91
2024/01/14 05:28:14;;;;;;;37.53;15.10;;;;;;;-148.68;100.00;62903.81;4916809;29;20036;-91
2024/01/14 05:31:40;;;;;;;;;;;;;;;-148.68;100.00;62903.81;4886077;29;20339;-91
2024/01/14 05:35:04;;;;;;;37.88;15.95;;;;;;;-148.68;100.00;62903.81;4911668;29;19915;-88
2024/01/14 05:38:29;;;;;;;29.23;12.77;;;;;;;-148.68;100.00;62903.81;4921710;29;20051;-88
2024/01/14 05:41:53;;;;;;;33.60;12.80;;;;;;;-148.68;100.00;62903.81;4924096;29;20031;-87
2024/01/14 05:45:17;;;;;;;37.30;15.35;;;;;;;-148.68;100.00;62903.81;4938935;29;20095;-88
2024/01/14 05:48:41;;;;;;;40.25;16.77;;;;;;;-148.68;100.00;62903.81;4922781;29;20088;-87
2024/01/14 05:52:06;;;;;;;38.67;16.00;;;;;;;-148.68;100.00;62903.81;4920073;29;20039;-92
2024/01/14 05:55:30;;;;;;;35.28;15.68;;;;;;;-148.68;100.00;62903.81;4904253;29;20111;-91
2024/01/14 05:58:54;;;;;;;42.35;16.13;;;;;;;-148.68;100.00;62903.81;4948223;28;20042;-91
2024/01/14 06:02:18;;;;;;;35.65;14.95;;;;;;;-148.68;100.00;62903.81;4942341;29;20119;-91
2024/01/14 06:05:42;;;;;;;37.97;15.38;;;;;;;-148.68;100.00;62903.81;4942257;29;20023;-90
2024/01/14 06:09:06;;;;;;;33.75;14.27;;;;;;;-148.68;100.00;62903.81;4942218;29;20031;-92
2024/01/14 06:12:29;;;;;;;33.83;14.73;;;;;;;-148.68;100.00;62903.81;4942243;29;20437;-91
2024/01/14 06:15:54;;;;;;;35.58;15.07;;;;;;;-148.68;100.00;62903.81;4941682;29;20031;-91
2024/01/14 06:19:18;;;;;;;37.55;15.38;;;;;;;-148.68;100.00;62903.81;4926488;29;20333;-90
2024/01/14 06:22:42;;;;;;;43.05;16.42;;;;;;;-148.68;100.00;62903.81;4926127;29;20031;-92
2024/01/14 06:26:06;;;;;;;32.20;13.88;;;;;;;-148.68;100.00;62903.81;4925985;29;20030;-91
2024/01/14 06:29:30;;;;;;;;;;;;;;;-148.68;100.00;62903.81;4926563;29;20035;-92
2024/01/14 06:32:55;;;;;;;41.43;15.93;;;;;;;-148.68;100.00;62903.81;4941847;29;20332;-92
2024/01/14 06:36:19;;;;;;;36.25;14.85;;;;;;;-148.68;100.00;62903.81;4941430;29;20361;-91
2024/01/14 06:39:43;;;;;;;34.90;15.85;;;;;;;-148.68;100.00;62903.81;4941852;29;20036;-92
2024/01/14 06:43:08;;;;;;;37.90;15.75;;;;;;;-148.68;100.00;62903.81;4925866;29;20032;-92
2024/01/14 06:46:32;;;;;;;36.97;15.88;;;;;;;-148.68;100.00;62903.81;4925941;29;20024;-91
2024/01/14 06:49:59;;;;;;;32.67;14.50;;;;;;;-148.68;100.00;62903.81;4921463;29;20039;-91
2024/01/14 06:53:23;;;;;;;36.47;14.57;;;;;;;-148.68;100.00;62903.81;4903404;29;20043;-91
2024/01/14 06:57:07;;;;;;;31.55;14.32;;;;;;;-148.68;100.00;62903.81;4888002;29;20038;-93
2024/01/14 07:00:31;;;;;;;38.15;15.15;;;;;;;-148.68;100.00;62903.81;4903559;29;20036;-92
2024/01/14 07:03:55;;;;;;;38.90;15.38;;;;;;;-148.68;100.00;62903.81;4888189;29;20035;-94
2024/01/14 07:07:19;;;;;;;40.60;15.98;;;;;;;-148.68;100.00;62903.81;4922966;29;20058;-92
2024/01/14 07:10:43;;;;;;;35.58;14.50;;;;;;;-148.68;100.00;62903.81;4937355;29;20461;-90
2024/01/14 07:14:07;;;;;;;36.03;15.45;;;;;;;-148.68;100.00;62903.81;4925279;29;20345;-91
2024/01/14 07:17:31;;;;;;;40.28;16.40;;;;;;;-148.68;100.00;62903.81;4940572;29;20032;-91
2024/01/14 07:20:55;;;;;;;35.90;15.80;;;;;;;-148.68;100.00;62903.81;4903127;29;20033;-90
2024/01/14 07:24:19;;;;;;;30.65;14.10;;;;;;;-148.68;100.00;62903.81;4894172;29;20028;-92
2024/01/14 07:27:43;;;;;;;37.78;15.38;;;;;;;-148.68;100.00;62903.81;4936831;29;20083;-92
2024/01/14 07:31:08;;;;;;;32.17;13.52;;;;;;;-148.68;100.00;62903.81;4924886;29;20119;-92
2024/01/14 07:34:32;;;;;;;35.17;14.85;;;;;;;-148.68;100.00;62903.81;4921688;29;20028;-90
2024/01/14 07:37:56;;;;;;;31.90;14.93;;;;;;;-148.68;100.00;62903.81;4940038;29;20039;-93
2024/01/14 07:41:20;;;;;;;29.88;13.73;;;;;;;-148.68;100.00;62903.81;4925081;29;20464;-93
2024/01/14 07:44:44;;;;;;;31.77;14.88;;;;;;;-148.68;100.00;62903.81;4940091;29;20163;-89
2024/01/14 07:48:08;;;;;;;33.78;14.00;;;;;;;-148.68;100.00;62903.81;4913274;29;20131;-89
2024/01/14 07:51:32;;;;;;;28.05;12.63;;;;;;;-148.68;100.00;62903.81;4922031;29;20032;-89
2024/01/14 07:54:56;;;;;;;28.23;12.68;;;;;;;-148.68;100.00;62903.81;4950270;29;20031;-88
2024/01/14 07:58:20;;;;;;;27.83;12.38;;;;;;;-148.68;100.00;62903.81;4940459;29;20074;-88
2024/01/14 08:01:45;;;;;;;24.73;11.43;;;;;;;-148.68;100.00;62903.81;4940609;29;20031;-89
2024/01/14 08:05:09;;;;;;;24.52;11.98;;;;;;;-148.68;100.00;62903.81;4939958;29;20098;-89
2024/01/14 08:08:34;;;;;;;20.42;9.98;;;;;;;-148.68;100.00;62903.81;4939828;29;20035;-89
2024/01/14 08:11:59;;;;;;;16.77;8.02;;;;;;;-148.68;100.00;62903.81;4939584;29;20024;-89
2024/01/14 08:15:22;;;;;;;19.10;8.93;;;;;;;-148.68;100.00;62903.81;4940073;29;20047;-88
2024/01/14 08:18:47;;;;;;;20.75;9.25;;;;;;;-148.68;100.00;62903.81;4940400;29;20035;-89
2024/01/14 08:22:14;;;;;;;20.00;9.95;;;;;;;-148.68;100.00;62903.81;4910234;29;20023;-88
2024/01/14 08:25:39;;;;;;;26.65;11.43;;;;;;;-148.68;100.00;62903.81;4921139;29;20346;-89
2024/01/14 08:29:03;;;;;;;28.98;11.60;;;;;;;-148.68;100.00;62903.81;4928690;29;20031;-89
2024/01/14 08:32:27;;;;;;;24.50;11.93;;;;;;;-148.68;100.00;62903.81;4935573;29;20036;-89
2024/01/14 08:35:52;;;;;;;52.17;18.40;;;;;;;-148.68;100.00;62903.81;4936425;29;20390;-89
2024/01/14 08:39:16;;;;;;;;;;;;;;;-148.68;100.00;62903.81;4920164;29;20033;-89
2024/01/14 08:42:44;;;;;;;48.55;21.15;;;;;;;-148.68;100.00;62903.81;4935851;29;19915;-88
2024/01/14 08:46:12;;;;;;;37.63;18.73;;;;;;;-148.68;100.00;62903.81;4907910;29;20038;-88
2024/01/14 08:49:36;;;;;;;63.13;26.20;;;;;;;-148.68;100.00;62903.81;4904147;29;20043;-89
2024/01/14 08:53:00;;;;;;;198.02;69.15;;;;;;;-148.68;100.00;62903.81;4920125;29;20028;-89
2024/01/14 08:56:28;;;;;;;32.70;13.18;;;;;;;-148.68;100.00;62903.81;4918956;29;20042;-89
2024/01/14 08:59:56;;;;;;;41.85;17.45;;;;;;;-148.68;100.00;62903.81;4935063;29;20441;-89
2024/01/14 09:03:20;;;;;;;20.40;9.38;;;;;;;-148.68;100.00;62903.81;4936169;29;20101;-89
2024/01/14 09:06:44;;;;;;;23.05;12.85;;;;;;;-148.68;100.00;62903.81;4900975;29;20063;-89
2024/01/14 09:10:08;;;;;;;29.65;15.75;;;;;;;-148.68;100.00;62903.81;4885753;29;20469;-89
2024/01/14 09:13:32;;;;;;;25.70;11.88;;;;;;;-148.68;100.00;62903.81;4938159;29;20024;-90
2024/01/14 09:16:57;;;;;;;22.75;10.45;;;;;;;-148.68;100.00;62903.81;4938834;29;20031;-90
2024/01/14 09:20:21;;;;;;;;;;;;;;;-148.68;100.00;62903.81;4923179;29;20059;-89
2024/01/14 09:23:45;;;;;;;18.73;9.60;;;;;;;-148.68;100.00;62903.81;4938697;29;19921;-90
2024/01/14 09:27:09;;;;;;;23.15;9.60;;;;;;;-148.68;100.00;62903.81;4939007;29;20087;-91
2024/01/14 09:30:33;;;;;;;15.77;9.00;;;;;;;-148.68;100.00;62903.81;4920581;29;20036;-91
2024/01/14 09:33:57;;;;;;;14.60;7.57;;;;;;;-148.68;100.00;62903.81;4919480;29;20028;-89
2024/01/14 09:37:21;;;;;;;17.45;8.73;;;;;;;-148.68;100.00;62903.81;4903714;29;20540;-89
2024/01/14 09:40:45;;;;;;;13.20;6.80;;;;;;;-148.68;100.00;62903.81;4936704;29;20032;-89
2024/01/14 09:44:09;;;;;;;12.75;6.82;;;;;;;-148.68;100.00;62903.81;4926464;29;20081;-91
2024/01/14 09:47:33;;;;;;;15.68;7.43;;;;;;;-148.68;100.00;62903.81;4928828;29;20024;-92
2024/01/14 09:50:58;;;;;;;14.15;7.28;;;;;;;-148.68;100.00;62903.81;4901331;29;20032;-91
2024/01/14 09:54:22;;;;;;;11.65;7.22;;;;;;;-148.68;100.00;62903.81;4920904;29;20028;-93
2024/01/14 09:57:51;;;;;;;12.40;6.57;;;;;;;-148.68;100.00;62903.81;4935464;29;20036;-92
2024/01/14 10:01:16;;;;;;;13.15;6.95;;;;;;;-148.68;100.00;62903.81;4935092;29;20039;-92
2024/01/14 10:04:45;;;;;;;16.25;6.50;;;;;;;-148.68;100.00;62903.81;4935531;29;20024;-91
2024/01/14 10:08:09;;;;;;;15.35;5.80;;;;;;;-148.68;100.00;62903.81;4920518;29;20038;-91
2024/01/14 10:11:33;;;;;;;13.50;7.30;;;;;;;-148.68;100.00;62903.81;4920724;29;20402;-91
2024/01/14 10:15:01;;;;;;;26.23;14.35;;;;;;;-148.68;100.00;62903.81;4916522;29;20043;-92
2024/01/14 10:19:08;;;;;;;11.82;6.72;;;;;;;6.43;100.00;94072.34;5115740;27;20380;-93
2024/01/14 10:21:34;;;;;;;14.10;6.82;;;;;;;6.20;100.00;94074.22;5097736;28;20024;-92
2024/01/14 10:24:00;;;;;;;37.65;18.70;;;;;;;6.29;100.00;94071.19;5097281;28;20027;-92
2024/01/14 10:27:25;;;;;;;21.23;7.47;;;;;;;-148.68;100.00;62903.81;5097286;28;20054;-92
2024/01/14 10:30:49;;;;;;;;;;;;;;;-148.68;100.00;62903.81;5115158;28;20035;-90
2024/01/14 10:34:20;;;;;;;16.90;8.30;;;;;;;-148.68;100.00;62903.81;5117689;28;19911;-93
2024/01/14 10:37:48;;;;;;;18.95;9.38;;;;;;;-148.68;100.00;62903.81;5117854;28;20030;-93
2024/01/14 10:41:12;;;;;;;22.85;10.77;;;;;;;-148.68;100.00;62903.81;5134640;28;20400;-93
2024/01/14 10:44:36;;;;;;;27.85;12.65;;;;;;;-148.68;100.00;62903.81;5117543;28;20027;-93
2024/01/14 10:48:08;;;;;;;23.55;11.00;;;;;;;-148.68;100.00;62903.81;5117438;28;20027;-93
2024/01/14 10:51:42;;;;;;;22.83;12.75;;;;;;;-148.68;100.00;62903.81;5117371;28;20034;-91
2024/01/14 10:55:14;;;;;;;312.48;136.35;;;;;;;-148.68;100.00;62903.81;5117046;28;20423;-87
2024/01/14 11:01:57;;;;;;;23.73;12.43;;;;;;;;;;5074409;28;20142;-86
2024/01/14 11:04:24;;;;;;;21.15;11.95;;;;;;;;;;5036517;28;20315;-86
2024/01/14 11:06:55;;;;;;;25.30;14.88;;;;;;;;;;5067487;28;20017;-86
2024/01/14 11:09:21;;;;;;;24.80;13.52;;;;;;;;;;5074206;28;20377;-86
2024/01/14 11:11:51;;;;;;;33.20;14.80;;;;;;;;;;5073879;28;20017;-87
2024/01/14 11:14:22;;;;;;;25.50;13.93;;;;;;;;;;5056450;28;20044;-86
2024/01/14 11:17:07;;;;;;;21.75;10.75;;;;;;;;;;5040505;28;20021;-86
2024/01/14 11:19:34;;;;;;;21.98;11.65;;;;;;;;;;5035910;28;20032;-86
2024/01/14 11:22:12;;;;;;;25.15;14.15;;;;;;;;;;5035866;28;20029;-86
2024/01/14 11:24:38;;;;;;;24.15;13.13;;;;;;;;;;5046911;28;20017;-89
2024/01/14 11:27:03;;;;;;;24.10;12.10;;;;;;;;;;5016794;28;20032;-89
2024/01/14 11:29:32;;;;;;;25.73;14.05;;;;;;;;;;5027002;28;20498;-89
2024/01/14 11:32:04;;;;;;;25.48;13.00;;;;;;;;;;5023390;28;20138;-90
2024/01/14 11:34:58;;;;;;;;;;;;;;;;;;;;;
2024/01/14 11:37:29;;;;;;;26.67;13.30;;;;;;;;;;5053782;28;20021;-89
2024/01/14 11:40:16;;;;;;;28.02;11.35;;;;;;;;;;5022618;28;20105;-89
2024/01/14 11:42:49;;;;;;;20.52;11.20;;;;;;;;;;5034721;28;20031;-89
2024/01/14 11:45:26;;;;;;;27.13;12.90;;;;;;;;;;5036321;28;20021;-89
2024/01/14 11:47:53;;;;;;;19.95;11.23;;;;;;;;;;5024733;28;20053;-89
2024/01/14 11:50:22;;;;;;;24.30;13.05;;;;;;;;;;5017005;28;20112;-90
2024/01/14 11:52:55;;;;;;;23.42;12.45;;;;;;;;;;5016279;28;20030;-91
2024/01/14 11:55:24;;;;;;;26.92;11.85;;;;;;;;;;5016438;28;20088;-90
2024/01/14 11:57:51;;;;;;;25.73;11.68;;;;;;;;;;5016493;28;20080;-90
2024/01/14 12:00:17;;;;;;;20.20;10.68;;;;;;;;;;5031966;28;20350;-90
2024/01/14 12:02:45;;;;;;;27.30;10.30;;;;;;;;;;5036129;28;20032;-90
2024/01/14 12:05:17;;;;;;;20.73;10.30;;;;;;;;;;5035999;28;20075;-90
2024/01/14 12:07:43;;;;;;;22.70;10.40;;;;;;;;;;5036034;28;20025;-90
2024/01/14 12:10:21;;;;;;;18.08;9.63;;;;;;;;;;5036070;28;20116;-89
2024/01/14 12:12:49;;;;;;;21.88;10.73;;;;;;;;;;5024947;28;20430;-90
2024/01/14 12:15:16;;;;;;;20.48;10.27;;;;;;;;;;5022742;28;20075;-90
2024/01/14 12:18:03;;;;;;;23.52;10.93;;;;;;;;;;5022492;28;20025;-89
2024/01/14 12:20:29;;;;;;;18.25;10.23;;;;;;;;;;5022453;28;20075;-90
2024/01/14 12:23:04;;;;;;;22.17;10.77;;;;;;;;;;5022560;28;20328;-91
2024/01/14 12:25:33;;;;;;;20.35;10.27;;;;;;;;;;5040169;28;20021;-89
2024/01/14 12:27:59;;;;;;;19.33;9.80;;;;;;;;;;5022804;28;20021;-92
2024/01/14 12:30:25;;;;;;;21.63;10.38;;;;;;;;;;5023567;28;20334;-91
2024/01/14 12:32:50;;;;;;;19.40;10.38;;;;;;;;;;5022756;28;20029;-91
2024/01/14 12:35:16;;;;;;;21.23;10.85;;;;;;;;;;5016147;28;20026;-92
2024/01/14 12:37:41;;;;;;;22.92;10.85;;;;;;;;;;5003423;28;20427;-91
2024/01/14 12:40:07;;;;;;;20.65;10.57;;;;;;;;;;5003313;28;20030;-91
2024/01/14 12:42:32;;;;;;;21.35;10.40;;;;;;;;;;5003089;28;20024;-91
2024/01/14 12:45:01;;;;;;;22.88;11.95;;;;;;;;;;5003058;28;20045;-92
2024/01/14 12:47:27;;;;;;;25.40;12.82;;;;;;;;;;5003331;28;20120;-91
2024/01/14 12:49:54;;;;;;;29.67;14.82;;;;;;;;;;5002633;28;20058;-90
2024/01/14 12:52:20;;;;;;;32.33;14.77;;;;;;;;;;5002516;28;20014;-91
2024/01/14 12:54:49;;;;;;;21.35;11.70;;;;;;;;;;5002689;28;20029;-91
2024/01/14 12:57:17;;;;;;;23.58;11.48;;;;;;;;;;5002358;28;20343;-91
2024/01/14 12:59:45;;;;;;;22.50;11.43;;;;;;;;;;5002305;28;20022;-91
2024/01/14 13:02:10;;;;;;;22.30;11.93;;;;;;;;;;5039350;28;20023;-91
2024/01/14 13:04:36;;;;;;;24.67;11.02;;;;;;;;;;5041605;28;20045;-90
2024/01/14 13:07:04;;;;;;;23.75;11.02;;;;;;;;;;5041319;28;20090;-89
2024/01/14 13:09:29;;;;;;;27.00;12.60;;;;;;;;;;5021835;28;20018;-90
2024/01/14 13:11:55;;;;;;;26.05;12.25;;;;;;;;;;5002329;28;20072;-90
2024/01/14 13:14:20;;;;;;;27.67;12.27;;;;;;;;;;5002361;28;20018;-91
2024/01/14 13:16:48;;;;;;;25.05;12.18;;;;;;;;;;5001957;28;20025;-90
2024/01/14 13:19:13;;;;;;;30.38;14.68;;;;;;;;;;5001420;28;20084;-90
2024/01/14 13:21:38;;;;;;;25.88;12.70;;;;;;;;;;5001826;28;20026;-90
2024/01/14 13:24:04;;;;;;;30.88;14.75;;;;;;;;;;5000835;28;20071;-89
2024/01/14 13:26:30;;;;;;;24.00;13.35;;;;;;;;;;5019117;28;20149;-90
2024/01/14 13:28:59;;;;;;;24.38;11.55;;;;;;;;;;5001647;28;20018;-90
2024/01/14 13:31:24;;;;;;;54.38;22.40;;;;;;;;;;5011766;28;20097;-93
2024/01/14 13:33:50;;;;;;;189.80;70.35;;;;;;;;;;5021412;28;20068;-90
2024/01/14 13:36:18;;;;;;;29.85;13.93;;;;;;;;;;5014108;28;20028;-92
2024/01/14 13:38:44;;;;;;;20.60;10.75;;;;;;;;;;5020887;28;20030;-91
2024/01/14 13:41:09;;;;;;;86.43;31.98;;;;;;;;;;5021303;28;20032;-91
2024/01/14 13:43:34;;;;;;;20.55;11.38;;;;;;;;;;5038904;28;20071;-92
2024/01/14 13:46:07;;;;;;;33.85;16.17;;;;;;;;;;5020555;28;20049;-90
2024/01/14 13:48:32;;;;;;;42.23;22.00;;;;;;;;;;5038043;28;20024;-90
2024/01/14 13:50:58;;;;;;;23.40;11.85;;;;;;;;;;5022803;28;20260;-89
2024/01/14 13:53:23;;;;;;;20.10;10.10;;;;;;;;;;5028720;28;20017;-91
2024/01/14 13:55:51;;;;;;;22.45;11.02;;;;;;;;;;5024176;28;20121;-91
2024/01/14 13:58:17;;;;;;;30.42;13.63;;;;;;;;;;5018319;28;20443;-90
2024/01/14 14:00:42;;;;;;;22.05;11.70;;;;;;;;;;5000594;28;20068;-90
2024/01/14 14:03:07;;;;;;;23.60;12.30;;;;;;;;;;5025468;28;20021;-92
2024/01/14 14:05:35;;;;;;;28.15;13.60;;;;;;;;;;5047198;28;20525;-91
2024/01/14 14:08:00;;;;;;;27.00;12.55;;;;;;;;;;5020775;28;20017;-91
2024/01/14 14:10:26;;;;;;;20.15;10.57;;;;;;;;;;5038164;28;20021;-92
2024/01/14 14:12:51;;;;;;;27.38;14.35;;;;;;;;;;5020785;28;20088;-91
2024/01/14 14:15:16;;;;;;;24.25;11.15;;;;;;;;;;5020064;28;20027;-90
2024/01/14 14:17:41;;;;;;;22.92;12.48;;;;;;;;;;5029794;28;20021;-89
2024/01/14 14:20:10;;;;;;;22.10;11.20;;;;;;;;;;5023826;28;20430;-90
2024/01/14 14:22:35;;;;;;;20.77;10.57;;;;;;;;;;5023578;28;20025;-91
2024/01/14 14:25:01;;;;;;;21.33;8.75;;;;;;;;;;5005502;28;20025;-90
2024/01/14 14:27:26;;;;;;;18.88;9.55;;;;;;;;;;5037427;28;20017;-90
2024/01/14 14:29:51;;;;;;;21.88;11.27;;;;;;;;;;5000816;28;20060;-90
2024/01/14 14:32:17;;;;;;;23.83;10.82;;;;;;;;;;5017587;28;20022;-91
2024/01/14 14:34:42;;;;;;;93.63;39.58;;;;;;;;;;5017359;28;20021;-91
2024/01/14 14:37:08;;;;;;;27.95;10.80;;;;;;;;;;5000297;28;20029;-91
2024/01/14 14:39:33;;;;;;;21.42;10.35;;;;;;;;;;5000179;28;20021;-90
2024/01/14 14:41:58;;;;;;;22.73;11.10;;;;;;;;;;5016924;28;20021;-91
2024/01/14 14:44:24;;;;;;;30.30;14.73;;;;;;;;;;5000267;28;20010;-90
2024/01/14 14:46:50;;;;;;;20.42;10.80;;;;;;;;;;5017674;28;20018;-91
2024/01/14 14:49:15;;;;;;;23.27;9.75;;;;;;;;;;5000741;28;20084;-90
2024/01/14 14:51:41;;;;;;;23.23;10.45;;;;;;;;;;5000168;28;20021;-91
2024/01/14 14:54:09;;;;;;;31.58;14.30;;;;;;;;;;5000133;28;20014;-91
2024/01/14 14:56:35;;;;;;;89.00;36.13;;;;;;;;;;5000095;28;20022;-91
2024/01/14 14:59:00;;;;;;;22.85;11.93;;;;;;;;;;5000191;28;20120;-90
2024/01/14 15:01:28;;;;;;;21.10;10.77;;;;;;;;;;4999849;28;20033;-90
2024/01/14 15:03:53;;;;;;;22.17;10.57;;;;;;;;;;4999826;28;20177;-91